sensor_id;sensor_type;location;lat;lon;timestamp;pressure;altitude;pressure_sealevel;temperature;humidity
42847;BME280;28495;49.916;14.536;2022-10-16T00:01:54;96875.28;;;14.39;76.93
42847;BME280;28495;49.916;14.536;2022-10-16T00:07:15;96869.69;;;14.33;76.60
42847;BME280;28495;49.916;14.536;2022-10-16T00:12:35;96860.69;;;14.36;76.98
42847;BME280;28495;49.916;14.536;2022-10-16T00:17:56;96863.50;;;14.43;77.07
42847;BME280;28495;49.916;14.536;2022-10-16T00:23:17;96863.00;;;14.47;76.91
42847;BME280;28495;49.916;14.536;2022-10-16T00:28:37;96862.16;;;14.47;76.68
42847;BME280;28495;49.916;14.536;2022-10-16T00:33:58;96863.47;;;14.51;77.00
42847;BME280;28495;49.916;14.536;2022-10-16T00:39:20;96866.78;;;14.53;76.66
42847;BME280;28495;49.916;14.536;2022-10-16T00:44:51;96865.47;;;14.57;77.03
42847;BME280;28495;49.916;14.536;2022-10-16T00:50:29;96873.97;;;14.51;76.69
42847;BME280;28495;49.916;14.536;2022-10-16T00:55:51;96873.00;;;14.52;76.96
42847;BME280;28495;49.916;14.536;2022-10-16T01:01:13;96871.84;;;14.46;76.83
42847;BME280;28495;49.916;14.536;2022-10-16T01:07:26;96860.03;;;14.42;76.33
42847;BME280;28495;49.916;14.536;2022-10-16T01:13:07;96879.19;;;14.35;76.60
42847;BME280;28495;49.916;14.536;2022-10-16T01:18:39;96859.69;;;14.37;76.75
42847;BME280;28495;49.916;14.536;2022-10-16T01:24:22;96867.25;;;14.32;76.51
42847;BME280;28495;49.916;14.536;2022-10-16T01:30:04;96862.97;;;14.31;76.80
42847;BME280;28495;49.916;14.536;2022-10-16T01:35:41;96864.75;;;14.22;76.46
42847;BME280;28495;49.916;14.536;2022-10-16T01:41:11;96876.91;;;14.23;76.46
42847;BME280;28495;49.916;14.536;2022-10-16T01:46:37;96883.44;;;14.11;76.23
42847;BME280;28495;49.916;14.536;2022-10-16T01:52:02;96882.72;;;14.00;76.14
42847;BME280;28495;49.916;14.536;2022-10-16T01:57:25;96881.88;;;13.92;76.06
42847;BME280;28495;49.916;14.536;2022-10-16T02:02:50;96879.91;;;13.94;76.51
42847;BME280;28495;49.916;14.536;2022-10-16T02:08:12;96877.16;;;14.03;76.63
42847;BME280;28495;49.916;14.536;2022-10-16T02:13:38;96887.34;;;14.07;76.57
42847;BME280;28495;49.916;14.536;2022-10-16T02:18:59;96879.63;;;14.05;76.60
42847;BME280;28495;49.916;14.536;2022-10-16T02:30:11;96875.88;;;14.16;76.86
42847;BME280;28495;49.916;14.536;2022-10-16T02:35:34;96879.47;;;14.07;76.21
42847;BME280;28495;49.916;14.536;2022-10-16T02:40:56;96879.47;;;14.07;76.46
42847;BME280;28495;49.916;14.536;2022-10-16T02:46:17;96883.88;;;13.98;76.61
42847;BME280;28495;49.916;14.536;2022-10-16T02:51:38;96886.47;;;13.98;76.72
42847;BME280;28495;49.916;14.536;2022-10-16T02:56:59;96878.00;;;14.04;76.81
42847;BME280;28495;49.916;14.536;2022-10-16T03:02:20;96876.19;;;14.05;77.02
42847;BME280;28495;49.916;14.536;2022-10-16T03:07:40;96888.94;;;13.99;76.63
42847;BME280;28495;49.916;14.536;2022-10-16T03:13:01;96889.78;;;14.00;76.87
42847;BME280;28495;49.916;14.536;2022-10-16T03:18:21;96902.38;;;13.96;76.78
42847;BME280;28495;49.916;14.536;2022-10-16T03:23:42;96908.13;;;14.00;76.92
42847;BME280;28495;49.916;14.536;2022-10-16T03:29:03;96912.22;;;14.02;77.13
42847;BME280;28495;49.916;14.536;2022-10-16T03:34:24;96914.06;;;14.10;77.32
42847;BME280;28495;49.916;14.536;2022-10-16T03:39:45;96914.72;;;14.12;77.03
42847;BME280;28495;49.916;14.536;2022-10-16T03:45:05;96922.09;;;14.09;77.00
42847;BME280;28495;49.916;14.536;2022-10-16T03:50:27;96928.50;;;14.06;77.06
42847;BME280;28495;49.916;14.536;2022-10-16T03:55:47;96932.09;;;14.05;76.95
42847;BME280;28495;49.916;14.536;2022-10-16T04:01:08;96935.34;;;14.07;77.16
42847;BME280;28495;49.916;14.536;2022-10-16T04:06:29;96945.19;;;14.05;77.03
42847;BME280;28495;49.916;14.536;2022-10-16T04:11:49;96941.94;;;14.11;77.24
42847;BME280;28495;49.916;14.536;2022-10-16T04:17:11;96944.25;;;14.23;77.49
42847;BME280;28495;49.916;14.536;2022-10-16T04:22:32;96952.59;;;14.18;76.73
42847;BME280;28495;49.916;14.536;2022-10-16T04:27:53;96957.94;;;14.00;76.49
42847;BME280;28495;49.916;14.536;2022-10-16T04:33:14;96961.84;;;13.96;76.87
42847;BME280;28495;49.916;14.536;2022-10-16T04:38:35;96962.34;;;13.99;76.98
42847;BME280;28495;49.916;14.536;2022-10-16T04:43:57;96973.69;;;14.00;76.69
42847;BME280;28495;49.916;14.536;2022-10-16T04:49:18;96967.47;;;14.01;76.74
42847;BME280;28495;49.916;14.536;2022-10-16T04:54:39;96967.59;;;13.99;76.99
42847;BME280;28495;49.916;14.536;2022-10-16T05:00:00;96962.22;;;14.09;77.17
42847;BME280;28495;49.916;14.536;2022-10-16T05:05:21;96972.53;;;14.02;76.92
42847;BME280;28495;49.916;14.536;2022-10-16T05:10:42;96978.75;;;14.01;76.63
42847;BME280;28495;49.916;14.536;2022-10-16T05:16:04;96972.06;;;14.07;77.00
42847;BME280;28495;49.916;14.536;2022-10-16T05:21:25;96967.19;;;14.12;77.17
42847;BME280;28495;49.916;14.536;2022-10-16T05:26:46;96973.09;;;14.23;76.95
42847;BME280;28495;49.916;14.536;2022-10-16T05:32:06;96979.00;;;14.16;76.90
42847;BME280;28495;49.916;14.536;2022-10-16T05:37:28;97002.16;;;14.29;77.35
42847;BME280;28495;49.916;14.536;2022-10-16T05:42:49;96997.63;;;14.40;77.28
42847;BME280;28495;49.916;14.536;2022-10-16T05:48:09;97002.81;;;14.31;76.93
42847;BME280;28495;49.916;14.536;2022-10-16T05:53:32;97013.66;;;14.37;77.13
42847;BME280;28495;49.916;14.536;2022-10-16T05:58:54;97012.00;;;14.27;77.22
42847;BME280;28495;49.916;14.536;2022-10-16T06:04:15;97024.59;;;14.24;77.14
42847;BME280;28495;49.916;14.536;2022-10-16T06:09:35;97027.22;;;14.24;76.96
42847;BME280;28495;49.916;14.536;2022-10-16T06:14:56;97036.72;;;14.25;77.01
42847;BME280;28495;49.916;14.536;2022-10-16T06:20:16;97031.00;;;14.29;77.13
42847;BME280;28495;49.916;14.536;2022-10-16T06:25:37;97045.56;;;14.24;76.88
42847;BME280;28495;49.916;14.536;2022-10-16T06:31:02;97049.25;;;14.39;77.48
42847;BME280;28495;49.916;14.536;2022-10-16T06:36:27;97065.19;;;14.46;77.32
42847;BME280;28495;49.916;14.536;2022-10-16T06:41:48;97073.91;;;14.46;77.23
42847;BME280;28495;49.916;14.536;2022-10-16T06:47:09;97087.88;;;14.55;77.40
42847;BME280;28495;49.916;14.536;2022-10-16T06:52:30;97085.09;;;14.57;77.58
42847;BME280;28495;49.916;14.536;2022-10-16T06:57:50;97100.72;;;14.67;77.46
42847;BME280;28495;49.916;14.536;2022-10-16T07:03:11;97102.59;;;14.74;77.23
42847;BME280;28495;49.916;14.536;2022-10-16T07:08:33;97092.38;;;14.71;77.29
42847;BME280;28495;49.916;14.536;2022-10-16T07:13:54;97115.59;;;14.58;77.21
42847;BME280;28495;49.916;14.536;2022-10-16T07:19:16;97110.72;;;14.63;76.94
42847;BME280;28495;49.916;14.536;2022-10-16T07:24:38;97121.88;;;14.65;77.36
42847;BME280;28495;49.916;14.536;2022-10-16T07:29:58;97132.16;;;14.85;77.73
42847;BME280;28495;49.916;14.536;2022-10-16T07:35:26;97144.00;;;14.89;77.37
42847;BME280;28495;49.916;14.536;2022-10-16T07:40:47;97139.72;;;14.88;77.42
42847;BME280;28495;49.916;14.536;2022-10-16T07:46:08;97143.69;;;14.92;77.23
42847;BME280;28495;49.916;14.536;2022-10-16T07:51:29;97146.19;;;15.02;77.42
42847;BME280;28495;49.916;14.536;2022-10-16T07:56:51;97147.97;;;15.01;77.16
42847;BME280;28495;49.916;14.536;2022-10-16T08:02:12;97151.44;;;15.02;77.07
42847;BME280;28495;49.916;14.536;2022-10-16T08:07:33;97147.16;;;15.09;77.54
42847;BME280;28495;49.916;14.536;2022-10-16T08:12:53;97142.75;;;15.18;77.77
42847;BME280;28495;49.916;14.536;2022-10-16T08:18:15;97148.50;;;15.21;77.58
42847;BME280;28495;49.916;14.536;2022-10-16T08:23:36;97152.16;;;15.37;77.62
42847;BME280;28495;49.916;14.536;2022-10-16T08:28:57;97154.16;;;15.51;77.80
42847;BME280;28495;49.916;14.536;2022-10-16T08:34:18;97162.88;;;15.60;77.71
42847;BME280;28495;49.916;14.536;2022-10-16T08:39:38;97164.38;;;15.71;77.74
42847;BME280;28495;49.916;14.536;2022-10-16T08:45:12;97169.50;;;15.73;77.47
42847;BME280;28495;49.916;14.536;2022-10-16T08:50:38;97171.28;;;15.72;77.33
42847;BME280;28495;49.916;14.536;2022-10-16T08:56:00;97170.97;;;15.75;77.60
42847;BME280;28495;49.916;14.536;2022-10-16T09:01:22;97176.94;;;15.94;77.84
42847;BME280;28495;49.916;14.536;2022-10-16T09:07:03;97179.88;;;15.99;77.34
42847;BME280;28495;49.916;14.536;2022-10-16T09:12:35;97180.22;;;16.04;77.60
42847;BME280;28495;49.916;14.536;2022-10-16T09:18:10;97180.38;;;16.11;77.45
42847;BME280;28495;49.916;14.536;2022-10-16T09:23:37;97177.72;;;16.19;77.32
42847;BME280;28495;49.916;14.536;2022-10-16T09:28:58;97182.00;;;16.28;77.25
42847;BME280;28495;49.916;14.536;2022-10-16T09:34:35;97176.41;;;16.48;77.65
42847;BME280;28495;49.916;14.536;2022-10-16T09:39:57;97184.56;;;16.70;77.74
42847;BME280;28495;49.916;14.536;2022-10-16T09:45:21;97190.25;;;16.90;77.31
42847;BME280;28495;49.916;14.536;2022-10-16T09:50:43;97202.09;;;16.94;76.86
42847;BME280;28495;49.916;14.536;2022-10-16T09:56:04;97216.44;;;17.00;76.93
42847;BME280;28495;49.916;14.536;2022-10-16T10:01:38;97220.53;;;17.02;76.65
42847;BME280;28495;49.916;14.536;2022-10-16T10:06:59;97227.28;;;17.05;76.74
42847;BME280;28495;49.916;14.536;2022-10-16T10:12:23;97225.13;;;17.09;76.77
42847;BME280;28495;49.916;14.536;2022-10-16T10:17:52;97213.22;;;17.21;76.89
42847;BME280;28495;49.916;14.536;2022-10-16T10:23:25;97211.97;;;17.40;76.81
42847;BME280;28495;49.916;14.536;2022-10-16T10:28:55;97204.63;;;17.59;76.87
42847;BME280;28495;49.916;14.536;2022-10-16T10:45:44;97211.16;;;18.18;76.42
42847;BME280;28495;49.916;14.536;2022-10-16T10:51:29;97204.41;;;18.38;76.22
42847;BME280;28495;49.916;14.536;2022-10-16T10:57:09;97196.78;;;18.58;76.11
42847;BME280;28495;49.916;14.536;2022-10-16T11:08:22;97201.53;;;18.78;75.56
42847;BME280;28495;49.916;14.536;2022-10-16T11:14:11;97206.81;;;18.93;75.17
42847;BME280;28495;49.916;14.536;2022-10-16T11:20:14;97212.75;;;18.95;74.55
42847;BME280;28495;49.916;14.536;2022-10-16T11:25:37;97207.34;;;18.88;74.18
42847;BME280;28495;49.916;14.536;2022-10-16T11:31:10;97211.09;;;18.79;74.34
42847;BME280;28495;49.916;14.536;2022-10-16T11:36:38;97205.91;;;18.71;74.09
42847;BME280;28495;49.916;14.536;2022-10-16T11:42:04;97206.44;;;18.66;73.67
42847;BME280;28495;49.916;14.536;2022-10-16T11:47:40;97209.91;;;18.67;73.90
42847;BME280;28495;49.916;14.536;2022-10-16T11:59:14;97209.09;;;18.66;73.88
42847;BME280;28495;49.916;14.536;2022-10-16T12:04:43;97209.38;;;18.71;73.99
42847;BME280;28495;49.916;14.536;2022-10-16T12:10:20;97213.66;;;18.72;73.89
42847;BME280;28495;49.916;14.536;2022-10-16T12:15:47;97206.19;;;18.76;73.86
42847;BME280;28495;49.916;14.536;2022-10-16T12:21:30;97212.34;;;18.83;73.99
42847;BME280;28495;49.916;14.536;2022-10-16T12:26:52;97209.84;;;18.90;73.80
42847;BME280;28495;49.916;14.536;2022-10-16T12:32:35;97203.84;;;18.96;73.88
42847;BME280;28495;49.916;14.536;2022-10-16T12:38:18;97205.56;;;19.04;73.76
42847;BME280;28495;49.916;14.536;2022-10-16T12:43:47;97192.00;;;19.07;73.47
42847;BME280;28495;49.916;14.536;2022-10-16T12:54:37;97200.81;;;19.29;73.54
42847;BME280;28495;49.916;14.536;2022-10-16T13:00:13;97197.59;;;19.34;73.29
42847;BME280;28495;49.916;14.536;2022-10-16T13:12:35;97201.06;;;19.34;72.59
42847;BME280;28495;49.916;14.536;2022-10-16T13:17:52;97212.19;;;19.30;72.42
42847;BME280;28495;49.916;14.536;2022-10-16T13:29:16;97209.25;;;19.40;72.70
42847;BME280;28495;49.916;14.536;2022-10-16T13:34:45;97219.66;;;19.41;72.61
42847;BME280;28495;49.916;14.536;2022-10-16T13:40:24;97230.41;;;19.40;72.25
42847;BME280;28495;49.916;14.536;2022-10-16T13:46:24;97233.88;;;19.40;72.55
42847;BME280;28495;49.916;14.536;2022-10-16T13:51:57;97237.47;;;19.32;72.40
42847;BME280;28495;49.916;14.536;2022-10-16T13:57:22;97249.41;;;19.28;73.06
42847;BME280;28495;49.916;14.536;2022-10-16T14:02:52;97244.09;;;19.28;73.04
42847;BME280;28495;49.916;14.536;2022-10-16T14:08:16;97245.38;;;19.17;73.08
42847;BME280;28495;49.916;14.536;2022-10-16T14:13:40;97243.19;;;19.21;73.28
42847;BME280;28495;49.916;14.536;2022-10-16T14:19:04;97250.84;;;19.31;73.70
42847;BME280;28495;49.916;14.536;2022-10-16T14:35:37;97247.56;;;19.29;73.70
42847;BME280;28495;49.916;14.536;2022-10-16T14:40:59;97255.59;;;19.21;73.56
42847;BME280;28495;49.916;14.536;2022-10-16T14:46:27;97248.13;;;19.24;73.83
42847;BME280;28495;49.916;14.536;2022-10-16T14:51:49;97247.66;;;19.36;74.22
42847;BME280;28495;49.916;14.536;2022-10-16T14:57:18;97243.84;;;19.38;74.10
42847;BME280;28495;49.916;14.536;2022-10-16T15:02:40;97253.69;;;19.29;74.11
42847;BME280;28495;49.916;14.536;2022-10-16T15:08:00;97248.22;;;19.16;73.64
42847;BME280;28495;49.916;14.536;2022-10-16T15:13:21;97249.78;;;19.10;74.22
42847;BME280;28495;49.916;14.536;2022-10-16T15:18:42;97250.22;;;19.14;74.37
42847;BME280;28495;49.916;14.536;2022-10-16T15:24:09;97242.66;;;19.11;74.25
42847;BME280;28495;49.916;14.536;2022-10-16T15:29:37;97259.13;;;18.83;74.08
42847;BME280;28495;49.916;14.536;2022-10-16T15:34:57;97258.72;;;18.71;74.37
42847;BME280;28495;49.916;14.536;2022-10-16T15:40:20;97265.53;;;18.50;74.24
42847;BME280;28495;49.916;14.536;2022-10-16T15:45:41;97281.06;;;18.30;74.42
42847;BME280;28495;49.916;14.536;2022-10-16T15:51:05;97271.72;;;18.19;74.71
42847;BME280;28495;49.916;14.536;2022-10-16T15:56:27;97268.66;;;18.07;74.58
42847;BME280;28495;49.916;14.536;2022-10-16T16:01:48;97284.44;;;17.84;74.68
42847;BME280;28495;49.916;14.536;2022-10-16T16:07:09;97284.78;;;17.81;75.01
42847;BME280;28495;49.916;14.536;2022-10-16T16:12:30;97295.69;;;17.78;74.99
42847;BME280;28495;49.916;14.536;2022-10-16T16:17:51;97301.59;;;17.80;75.01
42847;BME280;28495;49.916;14.536;2022-10-16T16:23:11;97316.31;;;17.74;74.76
42847;BME280;28495;49.916;14.536;2022-10-16T16:28:33;97325.22;;;17.73;75.15
42847;BME280;28495;49.916;14.536;2022-10-16T16:33:54;97332.28;;;17.81;74.99
42847;BME280;28495;49.916;14.536;2022-10-16T16:39:17;97331.13;;;17.83;75.31
42847;BME280;28495;49.916;14.536;2022-10-16T16:44:38;97338.84;;;17.85;75.07
42847;BME280;28495;49.916;14.536;2022-10-16T16:49:59;97342.00;;;17.80;74.97
42847;BME280;28495;49.916;14.536;2022-10-16T16:55:19;97353.50;;;17.88;75.27
42847;BME280;28495;49.916;14.536;2022-10-16T17:00:47;97351.72;;;17.80;75.14
42847;BME280;28495;49.916;14.536;2022-10-16T17:06:17;97354.72;;;17.77;74.93
42847;BME280;28495;49.916;14.536;2022-10-16T17:11:41;97361.16;;;17.74;74.90
42847;BME280;28495;49.916;14.536;2022-10-16T17:17:03;97369.59;;;17.70;75.13
42847;BME280;28495;49.916;14.536;2022-10-16T17:22:27;97380.31;;;17.68;75.40
42847;BME280;28495;49.916;14.536;2022-10-16T17:27:48;97386.72;;;17.65;75.24
42847;BME280;28495;49.916;14.536;2022-10-16T17:33:10;97408.34;;;17.61;75.21
42847;BME280;28495;49.916;14.536;2022-10-16T17:38:33;97414.78;;;17.58;75.29
42847;BME280;28495;49.916;14.536;2022-10-16T17:43:54;97414.16;;;17.40;74.78
42847;BME280;28495;49.916;14.536;2022-10-16T17:49:16;97426.88;;;17.36;74.98
42847;BME280;28495;49.916;14.536;2022-10-16T17:54:37;97429.84;;;17.33;74.74
42847;BME280;28495;49.916;14.536;2022-10-16T17:59:59;97437.41;;;17.28;74.96
42847;BME280;28495;49.916;14.536;2022-10-16T18:05:23;97434.78;;;17.19;74.41
42847;BME280;28495;49.916;14.536;2022-10-16T18:10:48;97436.59;;;17.11;74.63
42847;BME280;28495;49.916;14.536;2022-10-16T18:16:11;97455.06;;;17.11;74.73
42847;BME280;28495;49.916;14.536;2022-10-16T18:21:32;97456.53;;;17.13;75.10
42847;BME280;28495;49.916;14.536;2022-10-16T18:26:54;97467.22;;;17.03;74.65
42847;BME280;28495;49.916;14.536;2022-10-16T18:32:18;97470.53;;;16.97;74.78
42847;BME280;28495;49.916;14.536;2022-10-16T18:37:39;97475.59;;;16.90;74.96
42847;BME280;28495;49.916;14.536;2022-10-16T18:42:59;97476.94;;;16.95;75.07
42847;BME280;28495;49.916;14.536;2022-10-16T18:48:20;97473.47;;;16.94;74.82
42847;BME280;28495;49.916;14.536;2022-10-16T18:53:43;97481.50;;;16.84;74.86
42847;BME280;28495;49.916;14.536;2022-10-16T18:59:06;97482.81;;;16.80;74.72
42847;BME280;28495;49.916;14.536;2022-10-16T19:04:27;97482.81;;;16.72;74.89
42847;BME280;28495;49.916;14.536;2022-10-16T19:09:48;97492.50;;;16.71;75.03
42847;BME280;28495;49.916;14.536;2022-10-16T19:15:09;97497.75;;;16.63;74.89
42847;BME280;28495;49.916;14.536;2022-10-16T19:20:31;97498.75;;;16.54;74.93
42847;BME280;28495;49.916;14.536;2022-10-16T19:25:52;97509.72;;;16.49;74.90
42847;BME280;28495;49.916;14.536;2022-10-16T19:31:15;97514.50;;;16.45;75.10
42847;BME280;28495;49.916;14.536;2022-10-16T19:36:37;97539.66;;;16.40;74.80
42847;BME280;28495;49.916;14.536;2022-10-16T19:41:59;97532.38;;;16.34;74.87
42847;BME280;28495;49.916;14.536;2022-10-16T19:47:19;97552.63;;;16.41;75.01
42847;BME280;28495;49.916;14.536;2022-10-16T19:52:42;97548.34;;;16.32;74.86
42847;BME280;28495;49.916;14.536;2022-10-16T19:58:03;97552.81;;;16.40;74.97
42847;BME280;28495;49.916;14.536;2022-10-16T20:03:24;97555.22;;;16.25;74.49
42847;BME280;28495;49.916;14.536;2022-10-16T20:08:47;97557.41;;;16.38;75.42
42847;BME280;28495;49.916;14.536;2022-10-16T20:14:08;97566.81;;;16.40;75.05
42847;BME280;28495;49.916;14.536;2022-10-16T20:19:29;97559.84;;;16.31;75.16
42847;BME280;28495;49.916;14.536;2022-10-16T20:24:50;97563.91;;;16.17;74.80
42847;BME280;28495;49.916;14.536;2022-10-16T20:30:11;97561.88;;;16.11;74.94
42847;BME280;28495;49.916;14.536;2022-10-16T20:35:36;97567.44;;;16.08;74.71
42847;BME280;28495;49.916;14.536;2022-10-16T20:41:02;97563.13;;;15.98;74.72
42847;BME280;28495;49.916;14.536;2022-10-16T20:46:25;97567.97;;;15.85;74.75
42847;BME280;28495;49.916;14.536;2022-10-16T20:51:46;97572.44;;;15.75;74.71
42847;BME280;28495;49.916;14.536;2022-10-16T20:57:09;97573.22;;;15.67;75.00
42847;BME280;28495;49.916;14.536;2022-10-16T21:02:30;97581.56;;;15.62;74.85
42847;BME280;28495;49.916;14.536;2022-10-16T21:07:51;97576.38;;;15.70;75.25
42847;BME280;28495;49.916;14.536;2022-10-16T21:13:12;97589.09;;;15.57;74.83
42847;BME280;28495;49.916;14.536;2022-10-16T21:18:33;97586.91;;;15.52;75.14
42847;BME280;28495;49.916;14.536;2022-10-16T21:23:55;97592.31;;;15.51;75.28
42847;BME280;28495;49.916;14.536;2022-10-16T21:29:17;97594.72;;;15.44;75.01
42847;BME280;28495;49.916;14.536;2022-10-16T21:34:38;97596.00;;;15.40;75.20
42847;BME280;28495;49.916;14.536;2022-10-16T21:39:59;97609.16;;;15.40;75.43
42847;BME280;28495;49.916;14.536;2022-10-16T21:45:20;97612.69;;;15.49;75.33
42847;BME280;28495;49.916;14.536;2022-10-16T21:50:46;97612.91;;;15.37;75.32
42847;BME280;28495;49.916;14.536;2022-10-16T21:56:12;97611.72;;;15.32;75.38
42847;BME280;28495;49.916;14.536;2022-10-16T22:01:34;97618.16;;;15.37;75.33
42847;BME280;28495;49.916;14.536;2022-10-16T22:06:55;97626.28;;;15.44;75.55
42847;BME280;28495;49.916;14.536;2022-10-16T22:12:16;97631.53;;;15.62;76.16
42847;BME280;28495;49.916;14.536;2022-10-16T22:17:39;97637.00;;;15.69;75.82
42847;BME280;28495;49.916;14.536;2022-10-16T22:22:59;97637.22;;;15.76;75.60
42847;BME280;28495;49.916;14.536;2022-10-16T22:28:20;97628.22;;;15.78;75.16
42847;BME280;28495;49.916;14.536;2022-10-16T22:33:42;97636.25;;;15.59;75.05
42847;BME280;28495;49.916;14.536;2022-10-16T22:39:03;97635.00;;;15.63;75.27
42847;BME280;28495;49.916;14.536;2022-10-16T22:44:24;97634.16;;;15.44;74.80
42847;BME280;28495;49.916;14.536;2022-10-16T22:49:45;97635.88;;;15.17;74.78
42847;BME280;28495;49.916;14.536;2022-10-16T22:55:06;97639.75;;;15.13;74.95
42847;BME280;28495;49.916;14.536;2022-10-16T23:00:27;97644.53;;;15.00;74.88
42847;BME280;28495;49.916;14.536;2022-10-16T23:05:47;97653.88;;;15.12;75.16
42847;BME280;28495;49.916;14.536;2022-10-16T23:11:11;97656.56;;;15.20;74.80
42847;BME280;28495;49.916;14.536;2022-10-16T23:16:32;97644.94;;;15.05;74.31
42847;BME280;28495;49.916;14.536;2022-10-16T23:21:52;97644.09;;;15.04;74.67
42847;BME280;28495;49.916;14.536;2022-10-16T23:27:13;97643.06;;;15.15;74.84
42847;BME280;28495;49.916;14.536;2022-10-16T23:32:34;97647.34;;;15.16;74.67
42847;BME280;28495;49.916;14.536;2022-10-16T23:37:55;97646.78;;;14.94;74.02
42847;BME280;28495;49.916;14.536;2022-10-16T23:43:17;97655.97;;;14.81;74.04
42847;BME280;28495;49.916;14.536;2022-10-16T23:48:38;97654.34;;;14.60;73.85
42847;BME280;28495;49.916;14.536;2022-10-16T23:53:59;97664.34;;;14.46;74.03
42847;BME280;28495;49.916;14.536;2022-10-16T23:59:19;97670.84;;;14.42;73.98
